Clayton, Georgia
Current Conditions -  °F | °C
As of 1:55 PM on Friday 24 Oct 2014 (Local Time) from KTOC Reporting Station
Clear Clear  
Wind Chill: 67°   Ceiling: Unl
Heat Index: 67°   Visibility: 10mi
Dew Point: 45°   Wind: 0mph
Humidity: 44%   Direction: NA
Pressure: 30.03"   Gusts: NA
Location:  34.88°N, 83.4°W
Report Text: KTOC 241755Z AUTO 00000KT 10SM CLR 20/07 A3003 RMK AO2 T01970071 10199 20061
Loading
Personal Weather Stations






























Interactive Weather Map New forecast layout! Learn more

10-Day Weather Forecast

Advertisements
Track Severe Weather on mobile